Time;durP1;ratioP1;P1;durP2;ratioP2;P2;SDS_P1;SDS_P2;PMS_P1;PMS_P2;Temp;Humidity;BMP_temperature;BMP_pressure;BME280_temperature;BME280_humidity;BME280_pressure;Samples;Min_cycle;Max_cycle;Signal;HPM_P1;HPM_P2
2022/10/24 00:00:46;;;;;;;14.37;4.80;;;16.00;99.90;;;;;;478609;246;28987;-69
2022/10/24 00:02:47;;;;;;;9.63;4.30;;;16.00;99.90;;;;;;478603;246;28893;-70
2022/10/24 00:04:49;;;;;;;14.00;5.53;;;16.00;99.90;;;;;;478595;246;28855;-70
2022/10/24 00:06:50;;;;;;;14.77;4.60;;;16.00;99.90;;;;;;478561;246;29056;-70
2022/10/24 00:08:51;;;;;;;12.80;4.40;;;16.10;99.90;;;;;;478562;246;28987;-70
2022/10/24 00:10:52;;;;;;;11.27;4.77;;;16.10;99.90;;;;;;478603;246;29168;-69
2022/10/24 00:12:54;;;;;;;13.50;4.40;;;16.10;99.90;;;;;;478601;246;29387;-71
2022/10/24 00:14:55;;;;;;;10.10;4.00;;;16.10;99.90;;;;;;478608;247;29123;-69
2022/10/24 00:16:56;;;;;;;9.23;4.30;;;16.10;99.90;;;;;;478597;246;28866;-70
2022/10/24 00:18:57;;;;;;;9.37;4.37;;;16.00;99.90;;;;;;478616;246;28996;-72
2022/10/24 00:20:59;;;;;;;11.23;3.67;;;16.00;99.90;;;;;;478602;246;28938;-69
2022/10/24 00:23:00;;;;;;;8.23;4.80;;;16.00;99.90;;;;;;478575;246;28873;-70
2022/10/24 00:25:01;;;;;;;9.70;4.50;;;15.90;99.90;;;;;;478601;246;28860;-69
2022/10/24 00:27:03;;;;;;;8.50;4.23;;;16.00;99.90;;;;;;478560;246;28930;-69
2022/10/24 00:29:04;;;;;;;8.53;3.10;;;15.90;99.90;;;;;;478595;246;28981;-71
2022/10/24 00:31:05;;;;;;;7.13;4.20;;;15.80;99.90;;;;;;478612;246;28855;-69
2022/10/24 00:33:06;;;;;;;5.33;3.50;;;15.80;99.90;;;;;;478614;246;29406;-71
2022/10/24 00:35:07;;;;;;;8.83;4.23;;;15.80;99.90;;;;;;478611;246;29299;-69
2022/10/24 00:37:09;;;;;;;7.20;3.73;;;15.90;99.90;;;;;;478560;246;29319;-70
2022/10/24 00:39:10;;;;;;;11.33;3.73;;;15.80;99.90;;;;;;478602;246;28579;-71
2022/10/24 00:41:11;;;;;;;6.17;3.13;;;15.70;99.90;;;;;;478592;246;28853;-69
2022/10/24 00:43:12;;;;;;;8.77;3.20;;;15.70;99.90;;;;;;478596;246;28856;-70
2022/10/24 00:45:14;;;;;;;4.33;3.00;;;15.70;99.90;;;;;;478592;246;28852;-68
2022/10/24 00:47:15;;;;;;;7.50;3.57;;;15.70;99.90;;;;;;478570;246;28624;-70
2022/10/24 00:49:16;;;;;;;8.27;3.90;;;15.70;99.90;;;;;;478593;246;28925;-70
2022/10/24 00:51:18;;;;;;;6.43;3.27;;;15.70;99.90;;;;;;478591;246;28948;-69
2022/10/24 00:53:19;;;;;;;11.30;3.50;;;15.80;99.90;;;;;;478585;246;28618;-69
2022/10/24 00:55:20;;;;;;;7.67;4.23;;;15.80;99.90;;;;;;478591;246;29348;-69
2022/10/24 00:57:21;;;;;;;7.30;3.50;;;15.80;99.90;;;;;;478550;246;29318;-71
2022/10/24 00:59:22;;;;;;;12.70;3.87;;;15.80;99.90;;;;;;478597;246;29417;-71
2022/10/24 01:01:24;;;;;;;7.87;4.07;;;15.70;99.90;;;;;;478597;246;28879;-69
2022/10/24 01:03:25;;;;;;;10.33;4.07;;;15.70;99.90;;;;;;478597;246;28878;-69
2022/10/24 01:05:26;;;;;;;7.17;3.37;;;15.60;99.90;;;;;;478580;246;28455;-69
2022/10/24 01:07:27;;;;;;;9.93;4.03;;;15.70;99.90;;;;;;478551;246;28560;-69
2022/10/24 01:09:29;;;;;;;7.10;4.63;;;15.70;99.90;;;;;;478617;246;28700;-70
2022/10/24 01:11:30;;;;;;;7.20;3.53;;;15.80;99.90;;;;;;478594;246;28834;-69
2022/10/24 01:13:31;;;;;;;16.70;4.83;;;15.80;99.90;;;;;;478598;246;28939;-69
2022/10/24 01:15:32;;;;;;;6.33;4.13;;;15.80;99.90;;;;;;478593;246;28856;-69
2022/10/24 01:17:34;;;;;;;6.53;3.50;;;15.70;99.90;;;;;;478553;246;28960;-69
2022/10/24 01:19:35;;;;;;;8.83;3.50;;;15.60;99.90;;;;;;478604;246;28926;-70
2022/10/24 01:21:36;;;;;;;10.20;3.67;;;15.70;99.90;;;;;;478597;246;29326;-69
2022/10/24 01:23:37;;;;;;;14.90;4.90;;;15.60;99.90;;;;;;478586;246;29399;-69
2022/10/24 01:25:39;;;;;;;7.90;3.60;;;15.70;99.90;;;;;;478508;246;28443;-68
2022/10/24 01:27:40;;;;;;;10.80;3.80;;;15.70;99.90;;;;;;478466;247;28312;-70
2022/10/24 01:29:41;;;;;;;5.73;4.17;;;15.70;99.90;;;;;;478493;247;28775;-72
2022/10/24 01:31:42;;;;;;;6.17;3.37;;;15.70;99.90;;;;;;478505;247;28775;-69
2022/10/24 01:33:44;;;;;;;7.40;4.33;;;15.60;99.90;;;;;;478485;248;28770;-70
2022/10/24 01:35:45;;;;;;;7.87;3.67;;;15.60;99.90;;;;;;478501;247;28334;-69
2022/10/24 01:37:46;;;;;;;5.50;3.47;;;15.60;99.90;;;;;;478452;247;28482;-70
2022/10/24 01:39:47;;;;;;;7.60;3.80;;;15.60;99.90;;;;;;478500;247;28773;-71
2022/10/24 01:41:49;;;;;;;9.90;4.23;;;15.60;99.90;;;;;;478508;247;28831;-69
2022/10/24 01:43:50;;;;;;;13.40;4.40;;;15.60;99.90;;;;;;478503;247;29210;-69
2022/10/24 01:45:51;;;;;;;6.30;3.87;;;15.70;99.90;;;;;;478497;247;29211;-69
2022/10/24 01:47:53;;;;;;;6.27;3.77;;;15.70;99.90;;;;;;478465;247;28742;-73
2022/10/24 01:49:54;;;;;;;9.20;4.50;;;15.60;99.90;;;;;;478665;246;28465;-70
2022/10/24 01:51:55;;;;;;;14.90;4.33;;;15.60;99.90;;;;;;478496;247;28454;-69
2022/10/24 01:53:56;;;;;;;7.93;4.37;;;15.70;99.90;;;;;;478486;247;28473;-70
2022/10/24 01:55:58;;;;;;;11.70;4.37;;;15.70;99.90;;;;;;478479;247;28569;-68
2022/10/24 01:57:59;;;;;;;11.30;4.20;;;15.70;99.90;;;;;;478453;247;28465;-72
2022/10/24 02:00:00;;;;;;;16.53;5.10;;;15.80;99.90;;;;;;478486;247;28386;-71
2022/10/24 02:02:01;;;;;;;10.27;4.13;;;15.70;99.90;;;;;;478480;247;29220;-69
2022/10/24 02:04:03;;;;;;;16.77;4.80;;;15.70;99.90;;;;;;478770;245;29249;-69
2022/10/24 02:06:04;;;;;;;9.63;4.80;;;15.70;99.90;;;;;;478449;248;28787;-73
2022/10/24 02:08:05;;;;;;;9.13;4.13;;;15.70;99.90;;;;;;478482;245;28760;-70
2022/10/24 02:10:06;;;;;;;7.63;3.77;;;15.70;99.90;;;;;;478490;246;28429;-71
2022/10/24 02:12:08;;;;;;;22.63;4.33;;;15.70;99.90;;;;;;478490;247;28760;-69
2022/10/24 02:14:09;;;;;;;9.87;4.73;;;15.70;99.90;;;;;;478532;245;28761;-69
2022/10/24 02:16:10;;;;;;;9.93;4.93;;;15.80;99.90;;;;;;478450;245;28448;-70
2022/10/24 02:18:11;;;;;;;7.77;4.50;;;15.80;99.90;;;;;;478491;247;28484;-70
2022/10/24 02:20:13;;;;;;;19.30;5.43;;;15.80;99.90;;;;;;478509;245;28581;-70
2022/10/24 02:22:14;;;;;;;8.97;4.67;;;15.80;99.90;;;;;;478495;247;28850;-69
2022/10/24 02:24:15;;;;;;;11.33;3.80;;;15.80;99.90;;;;;;478431;248;29237;-70
2022/10/24 02:26:16;;;;;;;11.13;4.57;;;15.70;99.90;;;;;;478443;245;29623;-69
2022/10/24 02:28:18;;;;;;;9.83;4.43;;;15.80;99.90;;;;;;478481;247;29294;-70
2022/10/24 02:30:19;;;;;;;7.70;4.30;;;15.80;99.90;;;;;;478493;245;28465;-70
2022/10/24 02:32:20;;;;;;;11.53;5.27;;;15.90;99.90;;;;;;478507;245;28751;-70
2022/10/24 02:34:21;;;;;;;19.00;5.00;;;15.90;99.90;;;;;;478490;247;28470;-70
2022/10/24 02:36:23;;;;;;;11.43;4.53;;;15.90;99.90;;;;;;478459;245;28490;-70
2022/10/24 02:38:24;;;;;;;8.90;5.00;;;15.90;99.90;;;;;;478482;247;28458;-69
2022/10/24 02:40:25;;;;;;;7.57;4.40;;;15.80;99.90;;;;;;478491;245;28467;-70
2022/10/24 02:42:27;;;;;;;9.20;4.67;;;15.80;99.90;;;;;;478493;245;28428;-69
2022/10/24 02:44:28;;;;;;;13.07;4.60;;;15.90;99.90;;;;;;478482;245;28770;-70
2022/10/24 02:46:29;;;;;;;5.20;4.07;;;15.80;99.90;;;;;;478442;246;29296;-71
2022/10/24 02:48:30;;;;;;;9.13;4.23;;;15.80;99.90;;;;;;478502;245;29192;-69
2022/10/24 02:50:31;;;;;;;13.40;4.90;;;15.80;99.90;;;;;;478514;247;28918;-70
2022/10/24 02:52:33;;;;;;;14.40;5.00;;;15.80;99.90;;;;;;478504;245;28414;-68
2022/10/24 02:54:34;;;;;;;11.60;4.70;;;15.90;99.90;;;;;;478504;246;28768;-69
2022/10/24 02:56:35;;;;;;;9.27;4.37;;;15.90;99.90;;;;;;478462;245;28766;-68
2022/10/24 02:58:36;;;;;;;11.13;4.60;;;15.90;99.90;;;;;;478502;246;28874;-69
2022/10/24 03:00:38;;;;;;;8.10;4.90;;;15.80;99.90;;;;;;478492;247;28771;-70
2022/10/24 03:02:39;;;;;;;10.50;4.40;;;15.80;99.90;;;;;;478526;245;28767;-69
2022/10/24 03:04:40;;;;;;;10.93;4.40;;;15.80;99.90;;;;;;478482;245;28839;-70
2022/10/24 03:06:41;;;;;;;10.87;4.80;;;15.80;99.90;;;;;;478438;247;29232;-70
2022/10/24 03:08:43;;;;;;;10.60;4.50;;;15.80;99.90;;;;;;478528;245;29207;-69
2022/10/24 03:10:44;;;;;;;12.33;5.37;;;15.80;99.90;;;;;;478529;245;28843;-69
2022/10/24 03:12:45;;;;;;;6.23;4.20;;;15.80;99.90;;;;;;478529;246;28744;-69
2022/10/24 03:14:46;;;;;;;9.80;4.83;;;15.80;99.90;;;;;;478509;245;28758;-69
2022/10/24 03:16:48;;;;;;;12.00;5.00;;;15.80;99.90;;;;;;478469;247;28472;-71
2022/10/24 03:18:49;;;;;;;7.83;4.20;;;15.70;99.90;;;;;;478519;245;28758;-69
2022/10/24 03:20:50;;;;;;;12.83;5.27;;;15.80;99.90;;;;;;478516;245;28457;-69
2022/10/24 03:22:51;;;;;;;13.00;4.50;;;15.80;99.90;;;;;;478505;247;28462;-69
2022/10/24 03:24:53;;;;;;;9.07;4.70;;;15.80;99.90;;;;;;478512;247;28518;-69
2022/10/24 03:26:54;;;;;;;10.83;5.00;;;15.80;99.90;;;;;;478473;247;29210;-69
2022/10/24 03:28:55;;;;;;;7.53;4.23;;;15.90;99.90;;;;;;478500;247;29346;-69
2022/10/24 03:30:56;;;;;;;7.77;4.70;;;15.90;99.90;;;;;;478500;247;29252;-69
2022/10/24 03:32:58;;;;;;;11.00;4.87;;;15.90;99.90;;;;;;478518;247;28831;-69
2022/10/24 03:34:59;;;;;;;16.30;5.03;;;15.90;99.90;;;;;;478499;247;28439;-70
2022/10/24 03:37:00;;;;;;;13.40;5.43;;;15.90;99.90;;;;;;478579;246;28772;-72
2022/10/24 03:39:01;;;;;;;13.27;4.50;;;15.90;99.90;;;;;;478512;247;28767;-69
2022/10/24 03:41:04;;;;;;;9.97;4.10;;;15.80;99.90;;;;;;478500;248;28451;-69
2022/10/24 03:43:04;;;;;;;8.47;5.20;;;15.90;99.90;;;;;;478470;248;28829;-69
2022/10/24 03:45:05;;;;;;;8.37;5.17;;;15.90;99.90;;;;;;478623;246;28847;-69
2022/10/24 03:47:06;;;;;;;19.70;5.13;;;15.90;99.90;;;;;;478457;247;29041;-72
2022/10/24 03:49:08;;;;;;;5.27;4.50;;;15.90;99.90;;;;;;478652;246;29189;-69
2022/10/24 03:51:09;;;;;;;18.30;6.13;;;15.90;99.90;;;;;;478511;247;29234;-70
2022/10/24 03:53:10;;;;;;;9.63;4.43;;;15.90;99.90;;;;;;478516;247;28420;-69
2022/10/24 03:55:11;;;;;;;6.00;4.40;;;15.80;99.90;;;;;;478496;247;28829;-69
2022/10/24 03:57:13;;;;;;;7.53;4.87;;;15.90;99.90;;;;;;478473;247;28818;-71
2022/10/24 03:59:14;;;;;;;11.30;5.10;;;15.80;99.90;;;;;;478811;246;28752;-69
2022/10/24 04:01:17;;;;;;;11.97;4.70;;;15.80;99.90;;;;;;478493;247;28763;-71
2022/10/24 04:03:16;;;;;;;7.93;4.30;;;15.80;99.90;;;;;;478319;248;28782;-70
2022/10/24 04:05:18;;;;;;;9.20;4.60;;;15.80;99.90;;;;;;478504;248;28479;-70
2022/10/24 04:07:19;;;;;;;12.13;4.47;;;15.70;99.90;;;;;;478457;247;28824;-70
2022/10/24 04:09:20;;;;;;;8.63;4.23;;;15.70;99.90;;;;;;478582;246;29042;-69
2022/10/24 04:11:22;;;;;;;8.93;5.23;;;15.70;99.90;;;;;;478519;246;29249;-70
2022/10/24 04:13:23;;;;;;;14.70;4.33;;;15.70;99.90;;;;;;478520;246;29340;-71
2022/10/24 04:15:24;;;;;;;5.60;4.07;;;15.70;99.90;;;;;;478456;247;28746;-70
2022/10/24 04:17:25;;;;;;;10.60;4.60;;;15.70;99.90;;;;;;478467;247;28818;-70
2022/10/24 04:19:27;;;;;;;9.80;4.90;;;15.60;99.90;;;;;;478492;247;28475;-69
2022/10/24 04:21:28;;;;;;;11.30;4.23;;;15.70;99.90;;;;;;478492;248;28465;-70
2022/10/24 04:23:33;;;;;;;8.20;4.17;;;15.60;99.90;;;;;;478494;247;28595;-69
2022/10/24 04:25:30;;;;;;;8.07;4.90;;;15.70;99.90;;;;;;478176;248;28240;-70
2022/10/24 04:27:32;;;;;;;7.40;4.80;;;15.70;99.90;;;;;;478545;246;28839;-70
2022/10/24 04:29:33;;;;;;;12.87;4.90;;;15.70;99.90;;;;;;478921;246;28455;-69
2022/10/24 04:31:34;;;;;;;6.93;4.80;;;15.70;99.90;;;;;;478508;247;28800;-70
2022/10/24 04:33:35;;;;;;;7.60;4.50;;;15.60;99.90;;;;;;478501;247;29245;-72
2022/10/24 04:35:37;;;;;;;12.67;4.93;;;15.60;99.90;;;;;;478497;247;28809;-69
2022/10/24 04:37:38;;;;;;;9.80;5.20;;;15.60;99.90;;;;;;478466;247;28857;-71
2022/10/24 04:39:39;;;;;;;9.97;5.07;;;15.60;99.90;;;;;;478504;247;28333;-69
2022/10/24 04:41:40;;;;;;;10.80;4.70;;;15.60;99.90;;;;;;478500;247;28343;-70
2022/10/24 04:43:42;;;;;;;5.03;4.30;;;15.70;99.90;;;;;;478514;247;28347;-71
2022/10/24 04:45:43;;;;;;;6.63;4.30;;;15.60;99.90;;;;;;478509;247;28738;-70
2022/10/24 04:47:44;;;;;;;5.90;4.43;;;15.60;99.90;;;;;;478456;247;28277;-70
2022/10/24 04:49:45;;;;;;;6.87;5.00;;;15.60;99.90;;;;;;478514;247;28320;-69
2022/10/24 04:51:47;;;;;;;7.90;4.70;;;15.60;99.90;;;;;;478507;247;28387;-71
2022/10/24 04:53:48;;;;;;;15.27;4.97;;;15.50;99.90;;;;;;478769;246;29017;-71
2022/10/24 04:55:49;;;;;;;8.93;4.40;;;15.60;99.90;;;;;;478498;247;28900;-69
2022/10/24 04:57:50;;;;;;;13.07;5.07;;;15.60;99.90;;;;;;478474;247;28918;-69
2022/10/24 04:59:52;;;;;;;10.97;5.10;;;15.60;99.90;;;;;;478492;247;28331;-69
2022/10/24 05:01:53;;;;;;;15.27;4.83;;;15.60;99.90;;;;;;478507;247;28822;-69
2022/10/24 05:03:54;;;;;;;16.23;5.63;;;15.60;99.90;;;;;;478500;247;28414;-71
2022/10/24 05:05:55;;;;;;;11.40;4.80;;;15.50;99.90;;;;;;478512;247;28349;-69
2022/10/24 05:07:57;;;;;;;11.03;4.87;;;15.50;99.90;;;;;;478437;247;28369;-70
2022/10/24 05:09:58;;;;;;;10.00;5.10;;;15.50;99.90;;;;;;478482;247;28445;-70
2022/10/24 05:12:01;;;;;;;7.80;4.60;;;15.40;99.90;;;;;;478498;247;28539;-70
2022/10/24 05:14:00;;;;;;;8.60;4.93;;;15.40;99.90;;;;;;478443;248;29320;-71
2022/10/24 05:16:02;;;;;;;9.60;5.07;;;15.30;99.90;;;;;;478469;247;28987;-70
2022/10/24 05:18:03;;;;;;;9.93;4.57;;;15.40;99.90;;;;;;478480;247;29230;-70
2022/10/24 05:20:04;;;;;;;8.40;4.70;;;15.40;99.90;;;;;;478506;247;28442;-70
2022/10/24 05:22:05;;;;;;;11.40;4.77;;;15.40;99.90;;;;;;478507;247;28389;-70
2022/10/24 05:24:07;;;;;;;9.40;4.63;;;15.40;99.90;;;;;;478501;247;28137;-71
2022/10/24 05:26:08;;;;;;;6.40;4.10;;;15.30;99.90;;;;;;478456;247;28426;-69
2022/10/24 05:28:09;;;;;;;9.33;4.83;;;15.30;99.90;;;;;;478641;246;28247;-70
2022/10/24 05:30:10;;;;;;;8.63;4.30;;;15.40;99.90;;;;;;478437;247;28352;-69
2022/10/24 05:32:12;;;;;;;9.47;5.40;;;15.30;99.90;;;;;;478664;246;28346;-70
2022/10/24 05:34:13;;;;;;;10.60;4.23;;;15.40;99.90;;;;;;478507;247;28449;-71
2022/10/24 05:36:14;;;;;;;11.03;4.60;;;15.40;99.90;;;;;;478463;247;28814;-69
2022/10/24 05:38:15;;;;;;;10.30;4.33;;;15.50;99.90;;;;;;478655;246;28820;-71
2022/10/24 05:40:17;;;;;;;6.90;4.10;;;15.50;99.90;;;;;;478498;247;29531;-70
2022/10/24 05:42:18;;;;;;;9.50;4.00;;;15.50;99.90;;;;;;478495;247;28338;-70
2022/10/24 05:44:19;;;;;;;7.83;3.90;;;15.50;99.90;;;;;;478503;247;28404;-71
2022/10/24 05:46:20;;;;;;;7.00;3.20;;;15.50;99.90;;;;;;478450;247;28505;-70
2022/10/24 05:48:22;;;;;;;6.20;3.77;;;15.50;99.90;;;;;;478496;247;28446;-70
2022/10/24 05:50:23;;;;;;;6.67;3.97;;;15.50;99.90;;;;;;478490;247;28759;-69
2022/10/24 05:52:24;;;;;;;9.33;3.50;;;15.50;99.90;;;;;;478493;247;28395;-70
2022/10/24 05:54:25;;;;;;;6.40;3.70;;;15.40;99.90;;;;;;478489;247;28740;-70
2022/10/24 05:56:27;;;;;;;5.87;3.50;;;15.40;99.90;;;;;;478457;247;28442;-69
2022/10/24 05:58:28;;;;;;;6.13;4.20;;;15.50;99.90;;;;;;478482;248;28474;-70
2022/10/24 06:00:32;;;;;;;10.33;4.47;;;15.50;99.90;;;;;;478490;247;29304;-70
2022/10/24 06:02:30;;;;;;;7.07;4.40;;;15.50;99.90;;;;;;478239;248;29222;-70
2022/10/24 06:04:32;;;;;;;5.70;4.60;;;15.50;99.90;;;;;;478495;247;28828;-71
2022/10/24 06:06:33;;;;;;;6.30;3.30;;;15.40;99.90;;;;;;478461;247;28449;-71
2022/10/24 06:08:34;;;;;;;6.63;4.30;;;15.30;99.90;;;;;;478480;247;28754;-70
2022/10/24 06:10:35;;;;;;;7.43;3.67;;;15.40;99.90;;;;;;478494;247;28315;-69
2022/10/24 06:12:37;;;;;;;7.90;4.00;;;15.40;99.90;;;;;;478497;247;28547;-70
2022/10/24 06:14:38;;;;;;;5.20;3.93;;;15.30;99.90;;;;;;478491;247;28441;-71
2022/10/24 06:16:39;;;;;;;7.10;4.10;;;15.30;99.90;;;;;;478431;248;28427;-70
2022/10/24 06:18:40;;;;;;;7.13;4.20;;;15.30;99.90;;;;;;478463;247;28461;-70
2022/10/24 06:20:42;;;;;;;6.27;3.70;;;15.30;99.90;;;;;;478466;247;28369;-72
2022/10/24 06:22:46;;;;;;;7.30;3.70;;;15.30;99.90;;;;;;478632;246;28564;-70
2022/10/24 06:24:47;;;;;;;7.93;4.43;;;15.30;99.90;;;;;;478481;246;29006;-68
2022/10/24 06:26:48;;;;;;;11.30;4.53;;;15.30;99.90;;;;;;478433;247;28931;-71
2022/10/24 06:28:50;;;;;;;7.00;3.73;;;15.40;99.90;;;;;;478486;246;28491;-70
2022/10/24 06:30:53;;;;;;;6.40;4.00;;;15.40;99.90;;;;;;478491;248;28889;-69
2022/10/24 06:32:52;;;;;;;9.30;4.60;;;15.40;99.90;;;;;;478402;248;28755;-70
2022/10/24 06:34:53;;;;;;;9.40;4.53;;;15.40;99.90;;;;;;478505;247;28325;-69
2022/10/24 06:36:55;;;;;;;9.30;4.50;;;15.40;99.90;;;;;;478576;246;28778;-69
2022/10/24 06:41:01;;;;;;;9.30;5.10;;;15.40;99.90;;;;;;477059;246;28875;-70
2022/10/24 06:43:02;;;;;;;7.43;4.40;;;15.40;99.90;;;;;;476837;248;28917;-70
2022/10/24 06:45:04;;;;;;;7.97;4.50;;;15.50;99.90;;;;;;476695;248;29016;-69
2022/10/24 06:47:05;;;;;;;9.67;4.20;;;15.50;99.90;;;;;;476641;249;28991;-69
2022/10/24 06:49:06;;;;;;;10.60;5.10;;;15.50;99.90;;;;;;476696;248;28615;-72
2022/10/24 06:51:07;;;;;;;7.10;4.40;;;15.50;99.90;;;;;;476694;248;28766;-69
2022/10/24 06:53:09;;;;;;;8.83;3.80;;;15.50;99.90;;;;;;476689;248;28448;-70
2022/10/24 06:55:10;;;;;;;9.20;5.03;;;15.50;99.90;;;;;;476682;248;28771;-69
2022/10/24 06:57:11;;;;;;;8.43;4.93;;;15.50;99.90;;;;;;476645;248;28416;-70
2022/10/24 06:59:12;;;;;;;10.20;5.30;;;15.50;99.90;;;;;;476688;248;28865;-71
2022/10/24 07:01:14;;;;;;;10.53;5.00;;;15.50;99.90;;;;;;476683;247;28757;-69
2022/10/24 07:03:15;;;;;;;6.87;5.00;;;15.60;99.90;;;;;;476692;248;28959;-71
2022/10/24 07:05:16;;;;;;;8.23;4.20;;;15.60;99.90;;;;;;476694;248;29560;-68
2022/10/24 07:07:17;;;;;;;8.57;4.63;;;15.60;99.90;;;;;;476633;248;29214;-69
2022/10/24 07:09:19;;;;;;;8.13;4.50;;;15.60;99.90;;;;;;476691;248;29214;-69
2022/10/24 07:11:20;;;;;;;10.10;4.97;;;15.60;99.90;;;;;;476691;248;28343;-69
2022/10/24 07:13:21;;;;;;;8.77;4.23;;;15.60;99.90;;;;;;476686;248;28752;-70
2022/10/24 07:15:22;;;;;;;8.60;4.23;;;15.60;99.90;;;;;;476685;248;28764;-69
2022/10/24 07:17:24;;;;;;;5.70;4.67;;;15.60;99.90;;;;;;476646;248;28743;-69
2022/10/24 07:19:25;;;;;;;6.07;4.73;;;15.60;99.90;;;;;;476683;242;28762;-71
2022/10/24 07:21:26;;;;;;;11.10;4.00;;;15.60;99.90;;;;;;476683;249;28746;-69
2022/10/24 07:23:28;;;;;;;8.60;5.13;;;15.70;99.90;;;;;;476689;248;28783;-69
2022/10/24 07:25:29;;;;;;;8.37;4.67;;;15.70;99.90;;;;;;476689;248;28766;-68
2022/10/24 07:27:30;;;;;;;9.50;4.40;;;15.70;99.90;;;;;;476631;248;29338;-68
2022/10/24 07:29:31;;;;;;;7.20;4.57;;;15.70;99.90;;;;;;476680;248;29313;-71
2022/10/24 07:31:33;;;;;;;6.87;3.93;;;15.80;99.90;;;;;;476683;248;29250;-68
2022/10/24 07:33:34;;;;;;;5.10;4.00;;;15.80;99.90;;;;;;476685;248;29296;-70
2022/10/24 07:35:35;;;;;;;7.77;4.87;;;15.80;99.90;;;;;;476690;248;28742;-69
2022/10/24 07:37:36;;;;;;;6.43;3.93;;;15.80;99.90;;;;;;476652;248;28766;-69
2022/10/24 07:39:38;;;;;;;8.30;4.33;;;15.80;99.90;;;;;;476695;248;28767;-72
2022/10/24 07:41:40;;;;;;;7.17;3.93;;;15.80;99.90;;;;;;476705;248;28747;-67
2022/10/24 07:43:40;;;;;;;6.60;4.30;;;15.80;99.90;;;;;;476658;248;28762;-69
2022/10/24 07:45:41;;;;;;;6.50;3.73;;;15.80;99.90;;;;;;476675;249;28825;-69
2022/10/24 07:47:43;;;;;;;8.93;4.30;;;15.90;99.90;;;;;;476628;248;28789;-70
2022/10/24 07:49:44;;;;;;;9.73;4.10;;;15.90;99.90;;;;;;476681;248;28767;-70
2022/10/24 07:51:45;;;;;;;7.63;3.90;;;16.00;99.90;;;;;;461533;255;29034;-71
2022/10/24 07:53:46;;;;;;;7.70;4.00;;;16.00;99.90;;;;;;476712;248;28754;-71
2022/10/24 07:55:48;;;;;;;4.73;3.87;;;16.10;99.90;;;;;;476689;248;28866;-69
2022/10/24 07:57:49;;;;;;;7.40;3.97;;;16.10;99.90;;;;;;476642;242;28845;-69
2022/10/24 07:59:50;;;;;;;6.27;4.23;;;16.00;99.90;;;;;;476685;248;28829;-72
2022/10/24 08:01:51;;;;;;;7.07;4.37;;;16.00;99.90;;;;;;476681;249;28817;-69
2022/10/24 08:03:53;;;;;;;6.63;4.00;;;16.00;99.90;;;;;;476694;248;28766;-69
2022/10/24 08:05:55;;;;;;;6.67;3.90;;;16.00;99.90;;;;;;476676;248;28819;-68
2022/10/24 08:07:55;;;;;;;12.13;4.60;;;16.00;99.90;;;;;;476565;248;29315;-68
2022/10/24 08:09:56;;;;;;;5.63;3.70;;;16.00;99.90;;;;;;476683;248;29266;-71
2022/10/24 08:11:58;;;;;;;5.40;3.53;;;16.10;99.90;;;;;;461537;255;29401;-69
2022/10/24 08:14:01;;;;;;;8.53;3.97;;;16.10;99.90;;;;;;476467;249;28813;-69
2022/10/24 08:16:01;;;;;;;10.03;3.67;;;16.10;99.90;;;;;;476595;248;28766;-69
2022/10/24 08:18:01;;;;;;;6.47;4.23;;;16.10;99.90;;;;;;461470;255;28924;-69
2022/10/24 08:20:03;;;;;;;6.67;3.87;;;16.10;99.90;;;;;;476732;248;28875;-71
2022/10/24 08:22:04;;;;;;;5.00;3.60;;;16.10;99.90;;;;;;476683;248;28750;-68
2022/10/24 08:24:05;;;;;;;9.70;3.97;;;16.10;99.90;;;;;;476686;248;28816;-70
2022/10/24 08:26:06;;;;;;;4.57;3.80;;;16.00;99.90;;;;;;476655;248;28838;-69
2022/10/24 08:28:08;;;;;;;5.93;3.13;;;16.00;99.90;;;;;;476672;248;28738;-69
2022/10/24 08:30:09;;;;;;;14.00;3.73;;;16.10;99.90;;;;;;476693;248;29276;-72
2022/10/24 08:32:10;;;;;;;10.87;3.47;;;16.10;99.90;;;;;;476678;248;29223;-69
2022/10/24 08:34:13;;;;;;;5.67;3.90;;;16.10;99.90;;;;;;476683;248;29326;-70
2022/10/24 08:36:13;;;;;;;7.47;4.10;;;16.10;99.90;;;;;;476586;248;28761;-69
2022/10/24 08:38:14;;;;;;;4.43;3.10;;;16.10;99.90;;;;;;476688;248;28747;-68
2022/10/24 08:40:15;;;;;;;4.27;3.60;;;16.00;99.90;;;;;;476672;248;28840;-70
2022/10/24 08:42:16;;;;;;;4.77;3.33;;;15.90;99.90;;;;;;476685;248;28746;-68
2022/10/24 08:44:18;;;;;;;5.30;3.43;;;15.90;99.90;;;;;;476694;248;28765;-70
2022/10/24 08:46:19;;;;;;;8.43;3.50;;;15.80;99.90;;;;;;476642;248;28754;-68
2022/10/24 08:48:20;;;;;;;6.33;3.30;;;15.90;99.90;;;;;;476673;248;28769;-69
2022/10/24 08:50:21;;;;;;;6.27;4.00;;;15.90;99.90;;;;;;476692;248;28767;-70
2022/10/24 08:52:23;;;;;;;6.00;3.50;;;15.90;99.90;;;;;;476689;248;28754;-68
2022/10/24 08:54:24;;;;;;;3.67;3.10;;;15.90;99.90;;;;;;476678;248;29224;-68
2022/10/24 08:56:25;;;;;;;7.27;3.20;;;16.00;99.90;;;;;;476632;248;29196;-68
2022/10/24 08:58:26;;;;;;;6.03;3.23;;;16.10;99.90;;;;;;476676;248;29290;-68
2022/10/24 09:00:28;;;;;;;10.23;3.73;;;16.10;99.90;;;;;;476684;248;29228;-70
2022/10/24 09:02:29;;;;;;;8.83;3.90;;;16.10;99.90;;;;;;476688;248;28765;-68
2022/10/24 09:04:30;;;;;;;6.23;4.20;;;16.10;99.90;;;;;;476663;249;28794;-69
2022/10/24 09:06:31;;;;;;;5.10;3.47;;;16.20;99.90;;;;;;476633;249;28754;-68
2022/10/24 09:08:33;;;;;;;7.63;4.13;;;16.20;99.90;;;;;;476672;249;28761;-70
2022/10/24 09:10:34;;;;;;;5.40;3.93;;;16.20;99.90;;;;;;476670;248;28747;-71
2022/10/24 09:12:35;;;;;;;7.40;3.60;;;16.30;99.90;;;;;;476682;248;28758;-68
2022/10/24 09:14:36;;;;;;;5.20;3.30;;;16.40;99.90;;;;;;476683;248;28770;-69
2022/10/24 09:16:38;;;;;;;9.20;4.00;;;16.40;99.90;;;;;;476642;248;28845;-69
2022/10/24 09:18:39;;;;;;;8.70;3.50;;;16.40;99.90;;;;;;476674;249;29212;-70
2022/10/24 09:20:40;;;;;;;4.50;3.60;;;16.40;99.90;;;;;;476676;248;29232;-71
2022/10/24 09:22:41;;;;;;;11.17;3.90;;;16.50;99.90;;;;;;476670;249;29222;-67
2022/10/24 09:24:43;;;;;;;9.63;4.60;;;16.50;99.90;;;;;;476670;242;28875;-69
2022/10/24 09:26:44;;;;;;;5.20;3.10;;;16.50;99.90;;;;;;476639;248;28819;-68
2022/10/24 09:28:45;;;;;;;5.65;3.03;;;16.60;99.90;;;;;;474219;248;36264;-69
2022/10/24 09:30:46;;;;;;;6.77;3.40;;;16.60;99.90;;;;;;476674;248;27508;-71
2022/10/24 09:32:48;;;;;;;8.07;3.50;;;16.70;99.90;;;;;;476669;248;28751;-67
2022/10/24 09:34:49;;;;;;;8.00;3.57;;;16.80;99.90;;;;;;476674;248;28836;-69
2022/10/24 09:36:50;;;;;;;4.27;2.73;;;16.80;99.90;;;;;;476638;249;28774;-69
2022/10/24 09:38:51;;;;;;;6.50;3.30;;;17.00;99.90;;;;;;476677;248;28760;-69
2022/10/24 09:40:53;;;;;;;8.73;2.93;;;17.20;99.90;;;;;;476657;249;28766;-71
2022/10/24 09:42:54;;;;;;;3.67;2.73;;;17.40;99.90;;;;;;476681;247;29200;-67
2022/10/24 09:44:55;;;;;;;4.67;3.40;;;17.40;99.90;;;;;;476673;248;29327;-69
2022/10/24 09:46:56;;;;;;;7.40;3.23;;;17.40;99.90;;;;;;476632;248;29219;-68
2022/10/24 09:48:58;;;;;;;2.83;2.40;;;17.40;99.90;;;;;;476668;248;28761;-68
2022/10/24 09:50:59;;;;;;;5.30;2.90;;;17.40;99.90;;;;;;476674;248;28816;-69
2022/10/24 09:53:02;;;;;;;4.80;2.87;;;17.40;99.90;;;;;;476677;248;28766;-69
2022/10/24 09:55:01;;;;;;;2.90;2.60;;;17.50;99.90;;;;;;476611;249;28769;-69
2022/10/24 09:57:03;;;;;;;5.57;2.70;;;17.50;99.90;;;;;;476630;248;28749;-68
2022/10/24 09:59:04;;;;;;;5.37;2.70;;;17.60;99.90;;;;;;476670;248;28748;-68
2022/10/24 10:01:05;;;;;;;3.23;2.33;;;17.70;99.90;;;;;;476675;248;28762;-68
2022/10/24 10:03:07;;;;;;;7.53;2.57;;;17.70;99.90;;;;;;476668;249;28836;-69
2022/10/24 10:05:08;;;;;;;6.87;2.90;;;17.80;99.90;;;;;;476666;248;28852;-69
2022/10/24 10:07:09;;;;;;;4.30;2.70;;;17.80;99.90;;;;;;476635;248;29318;-68
2022/10/24 10:09:10;;;;;;;4.10;2.70;;;17.90;99.90;;;;;;476624;249;29231;-69
2022/10/24 10:11:11;;;;;;;5.77;2.50;;;17.90;99.90;;;;;;476670;248;29413;-68
2022/10/24 10:13:13;;;;;;;3.83;2.30;;;17.90;99.90;;;;;;476668;248;28757;-68
2022/10/24 10:15:14;;;;;;;5.37;2.40;;;17.90;99.90;;;;;;476675;248;28761;-70
2022/10/24 10:17:15;;;;;;;4.43;2.67;;;17.90;99.90;;;;;;476634;248;28748;-68
2022/10/24 10:19:16;;;;;;;3.57;2.10;;;17.90;99.90;;;;;;476680;248;28762;-70
2022/10/24 10:21:18;;;;;;;2.27;2.10;;;17.90;99.90;;;;;;476678;248;28835;-69
2022/10/24 10:23:19;;;;;;;4.67;2.67;;;17.90;99.90;;;;;;476684;248;28737;-69
2022/10/24 10:25:20;;;;;;;4.10;2.47;;;17.90;99.90;;;;;;476676;248;28776;-71
2022/10/24 10:27:21;;;;;;;5.07;2.57;;;17.90;99.90;;;;;;476642;249;28764;-68
2022/10/24 10:29:23;;;;;;;6.00;2.50;;;17.90;99.90;;;;;;476672;248;28750;-70